Time;durP1;ratioP1;P1;durP2;ratioP2;P2;SDS_P1;SDS_P2;PMS_P1;PMS_P2;Temp;Humidity;BMP_temperature;BMP_pressure;BME280_temperature;BME280_humidity;BME280_pressure;Samples;Min_cycle;Max_cycle;Signal;HPM_P1;HPM_P2
2021/04/05 00:00:28;;;;;;;10.75;8.48;;;5.10;1.00;;;;;;5076993;28;20248;-82
2021/04/05 00:02:58;;;;;;;9.07;8.02;;;5.10;1.00;;;;;;5087215;28;20231;-81
2021/04/05 00:05:26;;;;;;;10.70;8.52;;;5.10;1.00;;;;;;5099151;28;20230;-80
2021/04/05 00:07:53;;;;;;;9.93;7.60;;;5.00;1.00;;;;;;5083338;28;20255;-82
2021/04/05 00:10:26;;;;;;;11.45;9.73;;;5.00;1.00;;;;;;5098224;28;20228;-81
2021/04/05 00:12:56;;;;;;;13.23;9.27;;;5.00;1.00;;;;;;5077689;28;20223;-80
2021/04/05 00:15:22;;;;;;;12.35;9.65;;;5.00;1.00;;;;;;5098326;28;20220;-80
2021/04/05 00:17:48;;;;;;;15.30;11.38;;;5.00;1.00;;;;;;5084772;28;20405;-81
2021/04/05 00:20:21;;;;;;;15.23;10.88;;;5.00;1.00;;;;;;5073290;28;23239;-79
2021/04/05 00:22:50;;;;;;;15.98;11.95;;;5.00;1.00;;;;;;5078437;28;20223;-80
2021/04/05 00:25:17;;;;;;;15.63;12.00;;;5.10;1.00;;;;;;5071796;28;20258;-78
2021/04/05 00:27:44;;;;;;;16.63;11.88;;;5.10;1.00;;;;;;5075570;28;20255;-77
2021/04/05 00:30:17;;;;;;;14.35;11.18;;;5.10;1.00;;;;;;5095588;28;20227;-76
2021/04/05 00:32:43;;;;;;;16.00;11.95;;;5.00;1.00;;;;;;5082649;27;20231;-78
2021/04/05 00:35:14;;;;;;;14.40;11.75;;;5.00;1.00;;;;;;5089697;28;20286;-78
2021/04/05 00:37:43;;;;;;;15.48;11.93;;;4.90;1.00;;;;;;5069793;27;20212;-78
2021/04/05 00:40:12;;;;;;;25.05;18.30;;;4.90;1.00;;;;;;5075172;28;20231;-78
2021/04/05 00:42:39;;;;;;;13.85;10.45;;;4.90;1.00;;;;;;5069620;28;20250;-80
2021/04/05 00:45:06;;;;;;;15.43;10.68;;;4.90;1.00;;;;;;5089796;28;20246;-76
2021/04/05 00:47:34;;;;;;;15.05;11.40;;;4.90;1.00;;;;;;5074723;28;20345;-77
2021/04/05 00:50:00;;;;;;;14.20;10.93;;;4.90;1.00;;;;;;5090332;28;20306;-79
2021/04/05 00:52:27;;;;;;;14.23;11.10;;;4.80;1.00;;;;;;5073014;27;20223;-78
2021/04/05 00:54:57;;;;;;;13.50;10.15;;;4.80;1.00;;;;;;5093229;28;20219;-78
2021/04/05 00:57:23;;;;;;;11.05;9.48;;;4.80;1.00;;;;;;5090766;27;20220;-75
2021/04/05 00:59:50;;;;;;;14.10;9.27;;;4.80;1.00;;;;;;5062624;28;21423;-77
2021/04/05 01:02:16;;;;;;;14.60;9.60;;;4.80;1.00;;;;;;5094986;27;22074;-80
2021/04/05 01:04:45;;;;;;;13.05;9.77;;;4.70;1.00;;;;;;5088102;28;20221;-80
2021/04/05 01:07:12;;;;;;;12.30;8.77;;;4.70;1.00;;;;;;5105808;28;20216;-79
2021/04/05 01:09:38;;;;;;;11.40;9.52;;;4.70;1.00;;;;;;5091607;27;20766;-79
2021/04/05 01:12:06;;;;;;;11.88;9.32;;;4.70;1.00;;;;;;5092705;27;20238;-81
2021/04/05 01:14:33;;;;;;;17.23;10.20;;;4.60;1.00;;;;;;5114955;27;20228;-83
2021/04/05 01:17:00;;;;;;;10.57;8.63;;;4.60;1.00;;;;;;5125280;27;20222;-81
2021/04/05 01:19:26;;;;;;;14.20;9.93;;;4.50;1.00;;;;;;5095807;27;20237;-81
2021/04/05 01:21:54;;;;;;;14.27;9.10;;;4.50;1.00;;;;;;5121143;27;20243;-82
2021/04/05 01:24:24;;;;;;;10.77;9.23;;;4.50;1.00;;;;;;5104964;27;20222;-79
2021/04/05 01:26:51;;;;;;;11.88;10.00;;;4.40;1.00;;;;;;5119264;27;20268;-81
2021/04/05 01:29:18;;;;;;;11.13;9.63;;;4.40;1.00;;;;;;5107270;27;20218;-81
2021/04/05 01:31:44;;;;;;;11.50;9.45;;;4.40;1.00;;;;;;5103609;27;20309;-81
2021/04/05 01:34:14;;;;;;;11.93;9.10;;;4.40;1.00;;;;;;5091726;28;20218;-79
2021/04/05 01:36:40;;;;;;;10.50;9.40;;;4.40;1.00;;;;;;5114558;28;20251;-76
2021/04/05 01:39:10;;;;;;;14.35;9.40;;;4.40;1.00;;;;;;5114071;28;20212;-75
2021/04/05 01:41:36;;;;;;;13.20;10.07;;;4.40;1.00;;;;;;5108358;27;20231;-75
2021/04/05 01:44:03;;;;;;;13.13;9.48;;;4.40;1.00;;;;;;5099649;27;20295;-75
2021/04/05 01:46:30;;;;;;;10.20;8.80;;;4.40;1.00;;;;;;5102515;27;20235;-76
2021/04/05 01:48:59;;;;;;;11.27;9.55;;;4.50;1.00;;;;;;5106721;28;20304;-76
2021/04/05 01:51:25;;;;;;;11.55;10.10;;;4.40;1.00;;;;;;5088594;27;20361;-75
2021/04/05 01:53:53;;;;;;;14.10;9.15;;;4.40;1.00;;;;;;5091507;28;20254;-77
2021/04/05 01:56:21;;;;;;;12.18;9.77;;;4.40;1.00;;;;;;5076120;27;20212;-77
2021/04/05 01:58:50;;;;;;;12.52;10.75;;;4.40;1.00;;;;;;5087090;28;20216;-78
2021/04/05 02:01:20;;;;;;;12.90;9.75;;;4.30;1.00;;;;;;5073559;28;20303;-77
2021/04/05 02:03:47;;;;;;;12.60;9.82;;;4.40;1.00;;;;;;5084472;28;20223;-77
2021/04/05 02:06:16;;;;;;;14.05;11.07;;;4.30;1.00;;;;;;5070592;28;20417;-78
2021/04/05 02:08:44;;;;;;;13.70;10.32;;;4.40;1.00;;;;;;5092941;28;20237;-79
2021/04/05 02:11:12;;;;;;;13.70;10.43;;;4.40;1.00;;;;;;5091166;28;20266;-79
2021/04/05 02:13:40;;;;;;;14.65;11.10;;;4.30;1.00;;;;;;5100539;27;20220;-80
2021/04/05 02:16:08;;;;;;;12.20;9.55;;;4.30;1.00;;;;;;5080684;28;20297;-80
2021/04/05 02:18:49;;;;;;;14.15;10.00;;;4.30;1.00;;;;;;5076882;28;20228;-78
2021/04/05 02:21:18;;;;;;;15.88;11.65;;;4.40;1.00;;;;;;5066106;28;20250;-79
2021/04/05 02:23:47;;;;;;;14.20;10.90;;;4.40;1.00;;;;;;5089845;28;20220;-79
2021/04/05 02:26:19;;;;;;;10.55;9.43;;;4.30;1.00;;;;;;5079816;27;20493;-79
2021/04/05 02:28:48;;;;;;;15.25;11.30;;;4.30;1.00;;;;;;5099695;28;20228;-79
2021/04/05 02:31:17;;;;;;;15.27;11.00;;;4.30;1.00;;;;;;5062169;28;20219;-81
2021/04/05 02:33:46;;;;;;;17.77;12.00;;;4.30;1.00;;;;;;5093285;28;21378;-80
2021/04/05 02:36:14;;;;;;;15.73;11.23;;;4.30;1.00;;;;;;5090689;28;20777;-80
2021/04/05 02:38:44;;;;;;;15.68;11.25;;;4.30;1.00;;;;;;5077750;27;20711;-80
2021/04/05 02:41:12;;;;;;;18.05;12.98;;;4.30;1.00;;;;;;5103319;28;20811;-81
2021/04/05 02:43:40;;;;;;;15.15;11.65;;;4.40;1.00;;;;;;5082653;28;20295;-80
2021/04/05 02:46:15;;;;;;;13.38;11.32;;;4.30;1.00;;;;;;5089453;28;20222;-79
2021/04/05 02:48:50;;;;;;;18.17;13.25;;;4.40;1.00;;;;;;5075909;27;20250;-78
2021/04/05 02:51:17;;;;;;;15.13;12.27;;;4.50;1.00;;;;;;5071339;28;20216;-76
2021/04/05 02:53:45;;;;;;;20.10;14.38;;;4.40;1.00;;;;;;5074863;28;20311;-77
2021/04/05 02:56:11;;;;;;;16.80;12.43;;;4.40;1.00;;;;;;5090029;27;20562;-78
2021/04/05 02:58:44;;;;;;;18.08;11.88;;;4.40;1.00;;;;;;5076869;28;20221;-77
2021/04/05 03:01:12;;;;;;;17.60;12.30;;;4.40;1.00;;;;;;5078225;28;20224;-80
2021/04/05 03:03:40;;;;;;;14.68;11.30;;;4.40;1.00;;;;;;5087957;28;21114;-78
2021/04/05 03:06:08;;;;;;;11.35;10.15;;;4.40;1.00;;;;;;5098058;28;20227;-78
2021/04/05 03:08:37;;;;;;;14.55;10.27;;;4.30;1.00;;;;;;5080265;28;20776;-77
2021/04/05 03:11:05;;;;;;;16.30;10.70;;;4.20;1.00;;;;;;5089161;28;20303;-76
2021/04/05 03:13:34;;;;;;;15.50;10.90;;;4.20;1.00;;;;;;5080177;27;20769;-77
2021/04/05 03:16:06;;;;;;;14.30;10.60;;;4.10;1.00;;;;;;5101260;28;21933;-77
2021/04/05 03:18:39;;;;;;;17.38;12.10;;;4.20;1.00;;;;;;5060044;28;20982;-77
2021/04/05 03:21:12;;;;;;;16.30;10.80;;;4.20;1.00;;;;;;5092267;28;20228;-79
2021/04/05 03:23:39;;;;;;;20.73;10.80;;;4.20;1.00;;;;;;5076582;27;20230;-77
2021/04/05 03:26:05;;;;;;;17.48;11.30;;;4.10;1.00;;;;;;5092675;28;20231;-77
2021/04/05 03:28:35;;;;;;;13.40;10.45;;;4.20;1.00;;;;;;5065365;28;20266;-77
2021/04/05 03:31:11;;;;;;;17.50;10.63;;;4.20;1.00;;;;;;5091083;27;21117;-78
2021/04/05 03:33:42;;;;;;;20.83;13.57;;;4.20;1.00;;;;;;5087462;28;20212;-81
2021/04/05 03:36:17;;;;;;;18.00;12.10;;;4.20;1.00;;;;;;5096117;28;20322;-81
2021/04/05 03:38:47;;;;;;;16.65;11.02;;;4.20;1.00;;;;;;5078904;28;20258;-81
2021/04/05 03:41:21;;;;;;;16.05;11.70;;;4.20;1.00;;;;;;5076577;28;20223;-82
2021/04/05 03:43:55;;;;;;;17.48;12.07;;;4.20;1.00;;;;;;5078896;28;20220;-81
2021/04/05 03:46:32;;;;;;;18.20;12.45;;;4.10;1.00;;;;;;5096945;28;21122;-80
2021/04/05 03:49:09;;;;;;;20.08;13.25;;;4.10;1.00;;;;;;5094517;28;20239;-82
2021/04/05 03:51:45;;;;;;;18.65;12.25;;;4.10;1.00;;;;;;5097763;28;20219;-77
2021/04/05 03:54:14;;;;;;;19.02;13.23;;;4.10;1.00;;;;;;5075676;28;20306;-78
2021/04/05 03:56:45;;;;;;;19.60;15.23;;;4.20;1.00;;;;;;5063759;28;20290;-78
2021/04/05 03:59:18;;;;;;;18.02;13.35;;;4.20;1.00;;;;;;5076382;28;20214;-79
2021/04/05 04:01:48;;;;;;;21.23;14.40;;;4.20;1.00;;;;;;5077310;28;20231;-78
2021/04/05 04:04:25;;;;;;;22.25;13.80;;;4.30;1.00;;;;;;5095335;28;20277;-80
2021/04/05 04:07:00;;;;;;;18.65;15.20;;;4.40;1.00;;;;;;5064979;28;21649;-79
2021/04/05 04:09:28;;;;;;;21.90;14.73;;;4.40;1.00;;;;;;5093171;28;21351;-77
2021/04/05 04:11:56;;;;;;;23.65;16.00;;;4.40;1.00;;;;;;5083869;28;20224;-77
2021/04/05 04:14:25;;;;;;;23.92;16.23;;;4.40;1.00;;;;;;5098870;28;20232;-76
2021/04/05 04:16:52;;;;;;;23.42;16.27;;;4.50;1.00;;;;;;5086536;28;20236;-78
2021/04/05 04:19:23;;;;;;;24.30;16.75;;;4.50;1.00;;;;;;5086447;28;20215;-76
2021/04/05 04:21:51;;;;;;;23.67;15.75;;;4.50;1.00;;;;;;5084600;28;20220;-77
2021/04/05 04:24:18;;;;;;;29.63;16.88;;;4.50;1.00;;;;;;5094843;28;20223;-77
2021/04/05 04:26:45;;;;;;;26.88;17.88;;;4.50;1.00;;;;;;5096260;27;20204;-77
2021/04/05 04:29:18;;;;;;;28.65;19.17;;;4.60;1.00;;;;;;5107885;27;20223;-76
2021/04/05 04:31:45;;;;;;;29.30;19.65;;;4.60;1.00;;;;;;5077863;28;20290;-79
2021/04/05 04:34:14;;;;;;;26.08;19.10;;;4.60;1.00;;;;;;5098841;27;20306;-77
2021/04/05 04:36:48;;;;;;;29.10;19.25;;;4.60;1.00;;;;;;5075052;27;20287;-77
2021/04/05 04:39:16;;;;;;;28.92;18.15;;;4.60;1.00;;;;;;5092170;27;21496;-77
2021/04/05 04:41:44;;;;;;;28.98;19.67;;;4.60;1.00;;;;;;5079072;28;20224;-76
2021/04/05 04:44:10;;;;;;;28.75;18.10;;;4.60;1.00;;;;;;5100192;28;20215;-78
2021/04/05 04:46:38;;;;;;;30.00;19.08;;;4.70;1.00;;;;;;5073793;28;20221;-79
2021/04/05 04:49:05;;;;;;;29.75;21.05;;;4.70;1.00;;;;;;5104104;28;20236;-77
2021/04/05 04:51:33;;;;;;;29.70;19.20;;;4.80;1.00;;;;;;5071448;28;20228;-76
2021/04/05 04:54:02;;;;;;;31.58;19.08;;;4.80;1.00;;;;;;5073395;28;20228;-79
2021/04/05 04:56:32;;;;;;;33.78;19.98;;;4.80;1.00;;;;;;5076963;28;20224;-81
2021/04/05 04:59:00;;;;;;;30.08;20.77;;;4.80;1.00;;;;;;5090786;28;20220;-80
2021/04/05 05:01:29;;;;;;;30.38;20.25;;;4.80;1.00;;;;;;5087348;28;20319;-79
2021/04/05 05:03:58;;;;;;;31.10;20.27;;;4.80;1.00;;;;;;5091387;28;21544;-80
2021/04/05 05:06:29;;;;;;;32.05;19.08;;;4.80;1.00;;;;;;5079861;28;20239;-82
2021/04/05 05:08:58;;;;;;;33.65;21.00;;;4.80;1.00;;;;;;5064676;28;20242;-83
2021/04/05 05:11:26;;;;;;;32.55;21.02;;;4.90;1.00;;;;;;5094999;27;20230;-78
2021/04/05 05:13:52;;;;;;;30.50;19.52;;;4.90;1.00;;;;;;5083550;27;20433;-79
2021/04/05 05:16:20;;;;;;;30.65;20.40;;;4.90;1.00;;;;;;5098487;27;20232;-82
2021/04/05 05:18:47;;;;;;;32.35;20.67;;;4.90;1.00;;;;;;5065976;28;20224;-80
2021/04/05 05:21:18;;;;;;;32.65;22.05;;;5.00;1.00;;;;;;5099083;28;20244;-81
2021/04/05 05:23:46;;;;;;;32.65;21.90;;;5.00;1.00;;;;;;5094362;28;20269;-82
2021/04/05 05:26:17;;;;;;;30.77;21.00;;;5.00;1.00;;;;;;5111610;28;20203;-81
2021/04/05 05:28:51;;;;;;;30.25;21.20;;;5.00;1.00;;;;;;5099002;28;20230;-79
2021/04/05 05:31:18;;;;;;;34.03;19.98;;;5.10;1.00;;;;;;5099846;28;20216;-80
2021/04/05 05:33:45;;;;;;;31.40;21.30;;;5.10;1.00;;;;;;5087714;28;20264;-80
2021/04/05 05:36:15;;;;;;;29.70;20.30;;;5.20;1.00;;;;;;5083681;28;20220;-80
2021/04/05 05:38:42;;;;;;;28.35;19.50;;;5.20;1.00;;;;;;5087501;28;22798;-79
2021/04/05 05:41:15;;;;;;;34.25;22.10;;;5.30;1.00;;;;;;5095768;28;20220;-83
2021/04/05 05:43:50;;;;;;;36.88;21.75;;;5.30;1.00;;;;;;5089373;28;20258;-80
2021/04/05 05:46:23;;;;;;;27.48;20.55;;;5.40;1.00;;;;;;5075124;28;20224;-81
2021/04/05 05:49:14;;;;;;;30.73;20.42;;;5.40;1.00;;;;;;5093461;28;20261;-82
2021/04/05 05:51:58;;;;;;;25.90;18.73;;;5.40;1.00;;;;;;5090908;28;20535;-81
2021/04/05 05:54:36;;;;;;;30.23;19.50;;;5.50;1.00;;;;;;5085081;28;20257;-83
2021/04/05 05:57:09;;;;;;;29.60;21.38;;;5.50;1.00;;;;;;5085174;28;20400;-82
2021/04/05 05:59:47;;;;;;;29.25;19.20;;;5.50;1.00;;;;;;5074256;28;20223;-82
2021/04/05 06:02:36;;;;;;;26.15;18.63;;;5.60;1.00;;;;;;5084255;28;20222;-83
2021/04/05 06:05:23;;;;;;;30.77;21.70;;;5.70;1.00;;;;;;5076530;28;20321;-81
2021/04/05 06:08:00;;;;;;;26.38;19.33;;;5.70;1.00;;;;;;5079225;28;20310;-81
2021/04/05 06:10:43;;;;;;;29.40;19.45;;;5.70;1.00;;;;;;5089053;28;20219;-80
2021/04/05 06:13:21;;;;;;;28.23;19.55;;;5.80;1.00;;;;;;5083006;28;20722;-81
2021/04/05 06:16:12;;;;;;;32.00;19.83;;;5.90;1.00;;;;;;5071598;28;21159;-81
2021/04/05 06:18:58;;;;;;;30.77;20.42;;;5.90;1.00;;;;;;5090049;28;20256;-81
2021/04/05 06:21:37;;;;;;;32.60;18.58;;;6.00;1.00;;;;;;5098688;28;20228;-82
2021/04/05 06:24:12;;;;;;;25.77;18.88;;;5.90;1.00;;;;;;5089870;28;20256;-81
2021/04/05 06:26:50;;;;;;;32.50;22.02;;;6.00;1.00;;;;;;5074767;28;22532;-81
2021/04/05 06:29:27;;;;;;;26.70;18.15;;;6.10;1.00;;;;;;5101869;28;20254;-83
2021/04/05 06:32:33;;;;;;;28.48;18.38;;;6.10;1.00;;;;;;5093850;28;20234;-80
2021/04/05 06:35:26;;;;;;;25.55;18.77;;;6.20;1.00;;;;;;5096626;28;20226;-80
2021/04/05 06:37:57;;;;;;;29.45;19.63;;;6.30;1.00;;;;;;5083907;28;20228;-78
2021/04/05 06:40:30;;;;;;;30.77;18.88;;;6.30;1.00;;;;;;5099165;27;21057;-77
2021/04/05 06:43:25;;;;;;;28.98;18.92;;;6.40;1.00;;;;;;5086592;28;20212;-79
2021/04/05 06:46:17;;;;;;;26.13;19.30;;;6.40;1.00;;;;;;5104857;27;20215;-77
2021/04/05 06:49:15;;;;;;;29.23;17.90;;;6.40;1.00;;;;;;5054883;28;20232;-79
2021/04/05 06:52:14;;;;;;;30.40;18.95;;;6.40;1.00;;;;;;5082183;28;20618;-77
2021/04/05 06:55:00;;;;;;;33.28;17.73;;;6.40;1.00;;;;;;5091989;28;20231;-78
2021/04/05 06:57:42;;;;;;;30.88;19.63;;;6.40;1.00;;;;;;5077639;27;20222;-77
2021/04/05 07:00:12;;;;;;;28.48;18.23;;;6.50;1.00;;;;;;5096634;28;20216;-76
2021/04/05 07:02:59;;;;;;;34.20;21.75;;;6.60;1.00;;;;;;5076333;27;20211;-76
2021/04/05 07:05:45;;;;;;;28.33;17.90;;;6.60;1.00;;;;;;5105051;28;22364;-76
2021/04/05 07:08:19;;;;;;;27.48;18.00;;;6.60;1.00;;;;;;5068941;28;20232;-81
2021/04/05 07:10:57;;;;;;;28.15;18.60;;;6.70;1.00;;;;;;5107460;28;20215;-79
2021/04/05 07:13:31;;;;;;;25.30;17.90;;;6.70;1.00;;;;;;5085585;28;20246;-78
2021/04/05 07:16:04;;;;;;;27.13;17.55;;;6.70;1.00;;;;;;5104392;28;20224;-79
2021/04/05 07:18:51;;;;;;;30.73;19.65;;;6.70;1.00;;;;;;5082014;27;20298;-76
2021/04/05 07:21:34;;;;;;;26.92;17.55;;;6.50;1.00;;;;;;5092035;28;20220;-81
2021/04/05 07:24:15;;;;;;;26.38;19.23;;;6.40;1.00;;;;;;5082564;28;20227;-80
2021/04/05 07:26:48;;;;;;;29.10;19.80;;;6.20;1.00;;;;;;5101467;28;20232;-79
2021/04/05 07:29:22;;;;;;;34.28;18.60;;;6.10;1.00;;;;;;5086934;28;20235;-81
2021/04/05 07:31:56;;;;;;;27.55;18.73;;;5.90;1.00;;;;;;5100337;28;20262;-80
2021/04/05 07:34:48;;;;;;;33.92;22.52;;;5.90;1.00;;;;;;5081118;28;20286;-80
2021/04/05 07:37:36;;;;;;;28.73;18.48;;;5.80;1.00;;;;;;5092257;28;20207;-81
2021/04/05 07:40:16;;;;;;;39.40;22.58;;;5.80;1.00;;;;;;5096077;28;20219;-74
2021/04/05 07:42:49;;;;;;;29.85;19.27;;;5.70;1.00;;;;;;5086625;28;20251;-77
2021/04/05 07:45:21;;;;;;;30.77;20.05;;;5.70;1.00;;;;;;5090168;28;20266;-77
2021/04/05 07:47:55;;;;;;;35.28;22.42;;;5.60;1.00;;;;;;5105399;28;20248;-77
2021/04/05 07:50:29;;;;;;;29.00;19.33;;;5.70;1.00;;;;;;5084934;28;20230;-76
2021/04/05 07:52:59;;;;;;;32.53;20.15;;;5.70;1.00;;;;;;5086124;28;20228;-78
2021/04/05 07:55:26;;;;;;;30.98;19.77;;;5.70;1.00;;;;;;5083186;28;20232;-76
2021/04/05 07:58:15;;;;;;;29.60;20.95;;;5.70;1.00;;;;;;5085938;28;20798;-77
2021/04/05 08:01:01;;;;;;;34.05;20.60;;;5.70;1.00;;;;;;5086631;27;21005;-75
2021/04/05 08:03:44;;;;;;;28.13;19.60;;;5.70;1.00;;;;;;5108111;28;20228;-77
2021/04/05 08:06:16;;;;;;;28.75;20.70;;;5.70;1.00;;;;;;5090388;28;20226;-77
2021/04/05 08:08:52;;;;;;;34.13;22.70;;;5.70;1.00;;;;;;5095906;27;20215;-76
2021/04/05 08:11:46;;;;;;;34.03;19.75;;;5.70;1.00;;;;;;5086571;28;20231;-77
2021/04/05 08:14:35;;;;;;;34.83;20.05;;;5.60;1.00;;;;;;5099102;28;20244;-78
2021/04/05 08:17:12;;;;;;;31.73;21.15;;;5.60;1.00;;;;;;5096276;28;20866;-78
2021/04/05 08:19:45;;;;;;;30.58;21.80;;;5.60;1.00;;;;;;5077128;27;20219;-77
2021/04/05 08:22:19;;;;;;;32.45;23.30;;;5.60;1.00;;;;;;5094537;28;20819;-77
2021/04/05 08:25:05;;;;;;;34.95;22.20;;;5.50;1.00;;;;;;5094979;28;20222;-78
2021/04/05 08:27:38;;;;;;;36.60;22.80;;;5.50;1.00;;;;;;5102767;28;20219;-77
2021/04/05 08:30:10;;;;;;;36.53;24.30;;;5.50;1.00;;;;;;5066643;28;20821;-79
2021/04/05 08:32:48;;;;;;;34.47;24.33;;;5.50;1.00;;;;;;5071465;28;20238;-77
2021/04/05 08:35:35;;;;;;;39.42;22.60;;;5.50;1.00;;;;;;5077593;27;20304;-79
2021/04/05 08:38:10;;;;;;;37.10;23.58;;;5.50;1.00;;;;;;5093052;28;20298;-75
2021/04/05 08:40:43;;;;;;;38.38;23.88;;;5.50;1.00;;;;;;5079687;28;20224;-79
2021/04/05 08:43:15;;;;;;;38.50;22.85;;;5.40;1.00;;;;;;5104683;27;20254;-76
2021/04/05 08:45:46;;;;;;;32.70;22.52;;;5.50;1.00;;;;;;5056153;28;21136;-76
2021/04/05 08:48:17;;;;;;;40.25;24.73;;;5.50;1.00;;;;;;5089196;28;20231;-74
2021/04/05 08:50:49;;;;;;;33.60;24.35;;;5.50;1.00;;;;;;5070001;28;21169;-78
2021/04/05 08:53:17;;;;;;;37.10;24.30;;;5.50;1.00;;;;;;5080530;28;20220;-76
2021/04/05 08:55:45;;;;;;;36.75;24.75;;;5.50;1.00;;;;;;5087265;27;20227;-77
2021/04/05 08:58:19;;;;;;;43.15;27.30;;;5.50;1.00;;;;;;5073909;28;20220;-77
2021/04/05 09:00:49;;;;;;;38.35;25.30;;;5.50;1.00;;;;;;5088608;28;20274;-76
2021/04/05 09:03:21;;;;;;;42.35;25.92;;;5.40;1.00;;;;;;5074492;28;20232;-78
2021/04/05 09:05:48;;;;;;;41.70;25.88;;;5.40;1.00;;;;;;5088028;28;20230;-77
2021/04/05 09:08:19;;;;;;;46.63;25.42;;;5.40;1.00;;;;;;5055717;28;20461;-77
2021/04/05 09:10:51;;;;;;;44.60;27.52;;;5.30;1.00;;;;;;5092600;28;20272;-78
2021/04/05 09:13:20;;;;;;;42.83;27.20;;;5.30;1.00;;;;;;5078294;28;20621;-78
2021/04/05 09:16:32;;;;;;;43.28;29.15;;;5.30;1.00;;;;;;5091808;28;20230;-79
2021/04/05 09:19:38;;;;;;;38.97;24.15;;;5.40;1.00;;;;;;5027119;28;20302;-79
2021/04/05 09:22:25;;;;;;;39.03;25.83;;;5.30;1.00;;;;;;5083262;28;20232;-75
2021/04/05 09:25:17;;;;;;;44.25;26.85;;;5.40;1.00;;;;;;5096680;27;20265;-80
2021/04/05 09:27:59;;;;;;;42.80;25.73;;;5.30;1.00;;;;;;5077721;28;20303;-75
2021/04/05 09:30:59;;;;;;;46.38;28.67;;;5.30;1.00;;;;;;5087917;28;20212;-77
2021/04/05 09:34:08;;;;;;;37.75;26.15;;;5.40;1.00;;;;;;5076324;28;21157;-76
2021/04/05 09:37:00;;;;;;;41.88;27.55;;;5.40;1.00;;;;;;5093461;28;20229;-80
2021/04/05 09:40:05;;;;;;;25.58;14.88;;;5.40;1.00;;;;;;5096991;27;20228;-74
2021/04/05 09:43:04;;;;;;;11.85;6.60;;;5.10;1.00;;;;;;5096686;27;20250;-77
2021/04/05 09:45:35;;;;;;;9.55;5.65;;;4.80;1.00;;;;;;5094128;27;22393;-76
2021/04/05 09:48:33;;;;;;;9.13;5.90;;;4.70;1.00;;;;;;5081173;27;20318;-74
2021/04/05 09:51:28;;;;;;;7.25;4.40;;;4.70;1.00;;;;;;5077842;28;20309;-77
2021/04/05 09:54:10;;;;;;;4.90;3.65;;;4.70;1.00;;;;;;5067941;28;20238;-76
2021/04/05 09:56:46;;;;;;;3.45;2.90;;;4.70;1.00;;;;;;5067745;28;20228;-77
2021/04/05 09:59:16;;;;;;;2.97;2.08;;;4.70;1.00;;;;;;5072378;27;20390;-77
2021/04/05 10:01:49;;;;;;;4.07;2.50;;;4.70;1.00;;;;;;5102259;28;20230;-75
2021/04/05 10:04:22;;;;;;;3.70;3.15;;;4.70;1.00;;;;;;5096452;27;20307;-75
2021/04/05 10:06:51;;;;;;;3.78;2.75;;;4.70;1.00;;;;;;5101344;28;20212;-76
2021/04/05 10:09:25;;;;;;;2.80;2.08;;;4.80;1.00;;;;;;5090936;28;20258;-75
2021/04/05 10:11:52;;;;;;;3.85;2.15;;;4.70;1.00;;;;;;5107000;28;20227;-76
2021/04/05 10:14:23;;;;;;;2.60;2.38;;;4.70;1.00;;;;;;5086368;28;22012;-76
2021/04/05 10:16:54;;;;;;;2.97;2.67;;;4.70;1.00;;;;;;5078479;28;20288;-76
2021/04/05 10:19:25;;;;;;;4.05;1.70;;;4.70;1.00;;;;;;5097541;28;20240;-75
2021/04/05 10:21:57;;;;;;;2.17;1.60;;;4.80;1.00;;;;;;5117279;27;20224;-79
2021/04/05 10:24:25;;;;;;;2.35;1.60;;;4.80;1.00;;;;;;5109563;27;20227;-82
2021/04/05 10:27:02;;;;;;;3.78;2.08;;;4.80;1.00;;;;;;5116544;28;20381;-80
2021/04/05 10:29:31;;;;;;;3.92;1.17;;;4.80;1.00;;;;;;5100236;28;21148;-77
2021/04/05 10:32:01;;;;;;;1.90;1.60;;;4.80;1.00;;;;;;5100791;27;20279;-80
2021/04/05 10:34:28;;;;;;;1.52;1.00;;;4.80;1.00;;;;;;5119499;28;20807;-77
2021/04/05 10:36:59;;;;;;;1.90;1.65;;;4.80;1.00;;;;;;5105871;27;20204;-81
2021/04/05 10:39:25;;;;;;;2.20;1.98;;;4.90;1.00;;;;;;5112484;28;20434;-79
2021/04/05 10:41:58;;;;;;;2.95;2.20;;;5.00;1.00;;;;;;5092926;28;20258;-81
2021/04/05 10:44:28;;;;;;;1.88;1.50;;;5.10;1.00;;;;;;5105314;28;20242;-80
2021/04/05 10:46:59;;;;;;;2.22;1.45;;;5.20;1.00;;;;;;5097765;28;20228;-81
2021/04/05 10:49:29;;;;;;;1.88;1.10;;;5.30;1.00;;;;;;5101890;28;20242;-80
2021/04/05 10:52:07;;;;;;;2.72;1.75;;;5.30;1.00;;;;;;5091298;27;20224;-79
2021/04/05 10:54:43;;;;;;;1.60;1.27;;;5.30;1.00;;;;;;5108747;27;20753;-79
2021/04/05 10:57:16;;;;;;;3.03;1.55;;;5.50;1.00;;;;;;5097867;27;20290;-79
2021/04/05 10:59:45;;;;;;;2.30;1.85;;;5.50;1.00;;;;;;5096716;28;20259;-79
2021/04/05 11:02:20;;;;;;;1.90;1.30;;;5.50;1.00;;;;;;5095371;27;20304;-81
2021/04/05 11:04:53;;;;;;;1.55;1.45;;;5.50;1.00;;;;;;5104850;28;20330;-81
2021/04/05 11:07:22;;;;;;;3.45;1.85;;;5.60;1.00;;;;;;5090466;28;20231;-80
2021/04/05 11:09:52;;;;;;;2.15;1.33;;;5.70;1.00;;;;;;5096385;28;20220;-77
2021/04/05 11:12:25;;;;;;;2.67;2.20;;;5.80;1.00;;;;;;5086360;28;20223;-76
2021/04/05 11:14:55;;;;;;;1.90;1.63;;;5.80;1.00;;;;;;5095204;27;20230;-76
2021/04/05 11:17:24;;;;;;;2.40;1.85;;;5.70;1.00;;;;;;5070713;28;20212;-78
2021/04/05 11:19:54;;;;;;;1.92;1.50;;;5.70;1.00;;;;;;5099948;28;21291;-76
2021/04/05 11:22:24;;;;;;;3.10;1.70;;;5.70;1.00;;;;;;5077186;28;20308;-75
2021/04/05 11:24:59;;;;;;;2.08;1.50;;;5.60;1.00;;;;;;5115000;28;20220;-75
2021/04/05 11:27:28;;;;;;;1.55;1.45;;;5.60;1.00;;;;;;5096031;27;20224;-79
2021/04/05 11:29:57;;;;;;;2.65;1.83;;;5.60;1.00;;;;;;5099934;28;20223;-76
2021/04/05 11:32:28;;;;;;;3.50;1.70;;;5.60;1.00;;;;;;5088610;28;20302;-75
2021/04/05 11:34:58;;;;;;;1.92;1.52;;;5.60;1.00;;;;;;5100264;28;23850;-74
2021/04/05 11:37:30;;;;;;;2.42;1.63;;;5.60;1.00;;;;;;5084563;28;21002;-75
2021/04/05 11:40:02;;;;;;;2.63;1.70;;;5.80;1.00;;;;;;5091082;28;20322;-76
2021/04/05 11:42:36;;;;;;;1.88;1.70;;;6.00;1.00;;;;;;5088734;28;20455;-75
2021/04/05 11:45:06;;;;;;;3.63;1.80;;;6.30;1.00;;;;;;5096265;28;20218;-74
2021/04/05 11:47:39;;;;;;;1.60;1.42;;;6.60;1.00;;;;;;5090201;28;20291;-78
2021/04/05 11:50:16;;;;;;;4.13;1.80;;;6.70;1.00;;;;;;5080363;27;20228;-75
2021/04/05 11:52:51;;;;;;;2.33;1.00;;;6.90;1.00;;;;;;5103196;27;20716;-75
2021/04/05 11:55:29;;;;;;;1.88;1.38;;;6.80;1.00;;;;;;5096223;27;20245;-77
2021/04/05 11:58:04;;;;;;;2.10;1.10;;;6.90;1.00;;;;;;5106786;27;20223;-75
2021/04/05 12:00:37;;;;;;;2.90;1.10;;;6.90;1.00;;;;;;5065909;28;20298;-76
2021/04/05 12:03:15;;;;;;;4.70;1.50;;;6.90;1.00;;;;;;5098559;27;20250;-77
2021/04/05 12:05:47;;;;;;;4.05;1.98;;;6.80;1.00;;;;;;5094581;28;20237;-75
2021/04/05 12:08:20;;;;;;;2.25;1.13;;;6.70;1.00;;;;;;5102295;27;20794;-75
2021/04/05 12:10:53;;;;;;;2.58;1.10;;;5.60;1.00;;;;;;5090901;28;20219;-79
2021/04/05 12:13:28;;;;;;;1.98;1.30;;;4.60;1.00;;;;;;5104343;28;20219;-77
2021/04/05 12:15:57;;;;;;;2.00;1.60;;;3.90;1.00;;;;;;5085237;28;20260;-74
2021/04/05 12:18:26;;;;;;;2.78;1.48;;;3.60;1.00;;;;;;5093129;28;20346;-74
2021/04/05 12:21:01;;;;;;;1.95;1.30;;;3.40;1.00;;;;;;5078667;27;20230;-76
2021/04/05 12:23:28;;;;;;;1.88;1.20;;;3.50;1.00;;;;;;5098342;28;20345;-76
2021/04/05 12:25:55;;;;;;;1.80;0.95;;;4.00;1.00;;;;;;5070830;28;20228;-75
2021/04/05 12:28:30;;;;;;;4.50;1.27;;;4.70;1.00;;;;;;5096919;28;20230;-77
2021/04/05 12:30:57;;;;;;;1.38;0.75;;;5.50;1.00;;;;;;5058150;27;20498;-75
2021/04/05 12:33:26;;;;;;;0.93;0.50;;;6.60;1.00;;;;;;5094412;28;21323;-75
2021/04/05 12:35:54;;;;;;;2.58;2.38;;;7.10;1.00;;;;;;5071922;28;20223;-76
2021/04/05 12:38:28;;;;;;;1.40;1.30;;;7.10;1.00;;;;;;5079342;27;20235;-75
2021/04/05 12:40:55;;;;;;;1.55;1.42;;;7.60;1.00;;;;;;5047284;28;20655;-76
2021/04/05 12:43:25;;;;;;;2.30;1.52;;;8.20;1.00;;;;;;5082832;28;20235;-77
2021/04/05 12:45:53;;;;;;;1.30;0.70;;;9.10;1.00;;;;;;5062150;28;20225;-77
2021/04/05 12:48:24;;;;;;;1.10;0.83;;;10.70;1.00;;;;;;5076347;27;20464;-75
2021/04/05 12:50:56;;;;;;;1.30;0.80;;;11.60;1.00;;;;;;5082089;28;21387;-79
2021/04/05 12:53:26;;;;;;;0.80;0.70;;;11.80;1.00;;;;;;5091845;28;20510;-81
2021/04/05 12:55:53;;;;;;;1.63;0.70;;;11.70;1.00;;;;;;5078178;27;20224;-83
2021/04/05 12:58:29;;;;;;;1.43;0.83;;;11.50;1.00;;;;;;5092940;27;20440;-79
2021/04/05 13:00:56;;;;;;;2.00;1.60;;;10.70;1.00;;;;;;5077646;27;20583;-83
2021/04/05 13:03:29;;;;;;;1.55;0.70;;;9.70;1.00;;;;;;5096749;28;20220;-80
2021/04/05 13:05:59;;;;;;;1.70;0.80;;;8.90;1.00;;;;;;5076688;28;20275;-80
2021/04/05 13:08:31;;;;;;;1.67;0.50;;;8.40;1.00;;;;;;5090552;27;20251;-82
2021/04/05 13:11:13;;;;;;;1.10;0.60;;;8.60;1.00;;;;;;5085458;28;20250;-80
2021/04/05 13:13:47;;;;;;;0.98;0.80;;;8.60;1.00;;;;;;5099310;27;20224;-79
2021/04/05 13:16:22;;;;;;;2.17;1.08;;;8.70;1.00;;;;;;5085295;28;20282;-80
2021/04/05 13:18:53;;;;;;;1.10;0.70;;;8.90;1.00;;;;;;5089525;28;20236;-78
2021/04/05 13:21:23;;;;;;;1.83;0.90;;;9.30;1.00;;;;;;5089383;27;20227;-78
2021/04/05 13:23:53;;;;;;;2.08;1.33;;;9.60;1.00;;;;;;5111672;28;20226;-80